TimeCST,TemperatureF,Dew PointF,Humidity,Sea Level PressureIn,VisibilityMPH,Wind Direction,Wind SpeedMPH,Gust SpeedMPH,PrecipitationIn,Events,Conditions,WindDirDegrees,DateUTC
12:55 AM,37.6,34.3,88,30.24,10.0,NW,5.8,-,N/A,,Clear,320,2012-12-13 06:55:00
1:55 AM,34.2,32.2,92,30.24,10.0,Calm,Calm,-,N/A,,Clear,0,2012-12-13 07:55:00
2:55 AM,32.5,30.7,93,30.24,10.0,North,4.6,-,N/A,,Clear,350,2012-12-13 08:55:00
3:55 AM,33.8,32.2,94,30.25,10.0,NNW,5.8,-,N/A,,Clear,340,2012-12-13 09:55:00
4:55 AM,36.0,34.3,94,30.25,10.0,NNE,5.8,-,N/A,,Clear,20,2012-12-13 10:55:00
5:55 AM,36.1,34.9,95,30.26,9.0,NNE,4.6,-,N/A,,Clear,30,2012-12-13 11:55:00
6:55 AM,35.4,34.2,95,30.28,4.0,North,4.6,-,N/A,,Clear,10,2012-12-13 12:55:00
7:04 AM,33.8,33.8,100,30.29,2.5,North,4.6,-,N/A,,Clear,360,2012-12-13 13:04:00
7:18 AM,35.6,33.8,93,30.29,3.0,North,5.8,-,N/A,,Clear,350,2012-12-13 13:18:00
7:55 AM,39.2,38.3,97,30.30,7.0,NNW,5.8,-,N/A,,Clear,340,2012-12-13 13:55:00
8:18 AM,41.0,39.2,93,30.31,8.0,North,8.1,-,N/A,,Mostly Cloudy,350,2012-12-13 14:18:00
8:19 AM,41.0,39.2,93,30.31,8.0,North,8.1,-,N/A,,Mostly Cloudy,350,2012-12-13 14:19:00
8:26 AM,41.0,39.2,93,30.31,8.0,North,6.9,-,N/A,,Mostly Cloudy,360,2012-12-13 14:26:00
8:55 AM,42.4,41.0,95,30.34,3.0,NNE,8.1,-,N/A,,Overcast,20,2012-12-13 14:55:00
9:36 AM,44.6,42.8,93,30.31,2.0,NNE,8.1,-,N/A,,Overcast,20,2012-12-13 15:36:00
9:55 AM,44.1,42.1,93,30.34,2.0,NNE,10.4,-,N/A,,Overcast,20,2012-12-13 15:55:00
10:10 AM,44.6,42.8,93,30.32,3.0,NNE,8.1,-,N/A,,Overcast,20,2012-12-13 16:10:00
10:33 AM,46.4,42.8,87,30.31,4.0,NE,8.1,-,N/A,,Overcast,40,2012-12-13 16:33:00
10:55 AM,47.8,43.2,84,30.34,5.0,NE,5.8,-,N/A,,Mostly Cloudy,40,2012-12-13 16:55:00
11:08 AM,50.0,44.6,82,30.30,10.0,NE,5.8,-,N/A,,Mostly Cloudy,50,2012-12-13 17:08:00
11:26 AM,51.8,44.6,76,30.29,10.0,ENE,8.1,-,N/A,,Mostly Cloudy,60,2012-12-13 17:26:00
11:35 AM,53.6,44.6,72,30.29,10.0,NE,9.2,-,N/A,,Scattered Clouds,50,2012-12-13 17:35:00
11:55 AM,54.5,43.7,67,30.31,10.0,NE,10.4,-,N/A,,Scattered Clouds,50,2012-12-13 17:55:00
12:55 PM,57.4,44.2,62,30.30,10.0,ENE,9.2,-,N/A,,Partly Cloudy,60,2012-12-13 18:55:00
1:55 PM,59.2,44.6,58,30.28,10.0,ENE,6.9,-,N/A,,Clear,60,2012-12-13 19:55:00
2:55 PM,60.3,43.9,55,30.26,10.0,NE,8.1,-,N/A,,Clear,40,2012-12-13 20:55:00
3:55 PM,59.0,43.9,57,30.26,10.0,ENE,6.9,-,N/A,,Clear,70,2012-12-13 21:55:00
4:55 PM,53.8,44.6,71,30.25,10.0,Calm,Calm,-,N/A,,Clear,0,2012-12-13 22:55:00
5:55 PM,45.9,42.6,88,30.26,10.0,Calm,Calm,-,N/A,,Clear,0,2012-12-13 23:55:00
6:55 PM,42.4,40.8,94,30.28,10.0,Calm,Calm,-,N/A,,Clear,0,2012-12-14 00:55:00
7:55 PM,40.3,38.5,93,30.30,10.0,Calm,Calm,-,N/A,,Clear,0,2012-12-14 01:55:00
8:55 PM,38.5,36.7,93,30.31,10.0,Calm,Calm,-,N/A,,Clear,0,2012-12-14 02:55:00
9:55 PM,35.8,34.2,94,30.30,10.0,Calm,Calm,-,N/A,,Clear,0,2012-12-14 03:55:00
10:55 PM,35.6,34.5,96,30.31,5.0,Calm,Calm,-,N/A,,Clear,0,2012-12-14 04:55:00
11:55 PM,34.0,32.9,96,30.31,6.0,Calm,Calm,-,N/A,,Clear,0,2012-12-14 05:55:00